createdAt,value
2023-03-29T00:01:00.257Z,5.90
2023-03-29T00:03:28.803Z,5.90
2023-03-29T00:06:03.980Z,5.90
2023-03-29T00:08:34.042Z,5.80
2023-03-29T00:11:03.061Z,5.80
2023-03-29T00:13:31.789Z,5.80
2023-03-29T00:16:00.212Z,5.70
2023-03-29T00:18:28.680Z,5.70
2023-03-29T00:20:57.284Z,5.70
2023-03-29T00:23:27.402Z,5.60
2023-03-29T00:25:56.491Z,5.60
2023-03-29T00:28:25.608Z,5.60
2023-03-29T00:30:54.150Z,5.60
2023-03-29T00:33:22.870Z,5.50
2023-03-29T00:35:57.424Z,5.50
2023-03-29T00:38:27.119Z,5.40
2023-03-29T00:40:55.360Z,5.40
2023-03-29T00:43:24.131Z,5.40
2023-03-29T00:45:52.593Z,5.40
2023-03-29T00:48:28.108Z,5.30
2023-03-29T00:51:00.350Z,5.30
2023-03-29T00:53:34.640Z,5.20
2023-03-29T00:56:06.990Z,5.20
2023-03-29T00:58:41.737Z,5.20
2023-03-29T01:01:15.750Z,5.10
2023-03-29T01:03:48.140Z,5.10
2023-03-29T01:06:19.550Z,5.10
2023-03-29T01:08:53.825Z,5.10
2023-03-29T01:11:26.673Z,5.10
2023-03-29T01:14:00.147Z,5.10
2023-03-29T01:16:30.421Z,5.00
2023-03-29T01:18:59.361Z,5.00
2023-03-29T01:21:33.192Z,5.00
2023-03-29T01:24:28.527Z,5.00
2023-03-29T01:27:05.378Z,5.00
2023-03-29T01:29:37.624Z,5.00
2023-03-29T01:32:10.134Z,5.00
2023-03-29T01:34:44.149Z,5.00
2023-03-29T01:37:17.164Z,5.00
2023-03-29T01:39:45.392Z,5.00
2023-03-29T01:42:27.700Z,5.00
2023-03-29T01:45:04.084Z,5.00
2023-03-29T01:47:43.137Z,5.00
2023-03-29T01:50:15.905Z,5.00
2023-03-29T01:52:49.910Z,5.00
2023-03-29T01:55:21.662Z,5.00
2023-03-29T01:57:51.064Z,5.00
2023-03-29T02:00:24.824Z,5.00
2023-03-29T02:03:00.106Z,5.00
2023-03-29T02:05:30.761Z,5.00
2023-03-29T02:08:01.547Z,5.00
2023-03-29T02:10:30.912Z,5.00
2023-03-29T02:12:59.692Z,5.00
2023-03-29T02:15:29.398Z,5.00
2023-03-29T02:17:58.082Z,5.00
2023-03-29T02:20:31.610Z,5.00
2023-03-29T02:23:05.687Z,5.00
2023-03-29T02:25:34.181Z,5.00
2023-03-29T02:28:03.187Z,5.00
2023-03-29T02:30:43.468Z,5.00
2023-03-29T02:33:15.933Z,5.00
2023-03-29T02:35:49.819Z,5.00
2023-03-29T02:38:18.842Z,5.00
2023-03-29T02:40:47.821Z,5.00
2023-03-29T02:43:17.854Z,5.00
2023-03-29T02:45:48.352Z,5.10
2023-03-29T02:48:21.366Z,5.10
2023-03-29T02:50:54.715Z,5.10
2023-03-29T02:53:27.266Z,5.10
2023-03-29T02:56:02.290Z,5.20
2023-03-29T02:58:31.728Z,5.20
2023-03-29T03:01:03.483Z,5.20
2023-03-29T03:03:32.188Z,5.20
2023-03-29T03:06:02.120Z,5.20
2023-03-29T03:08:31.086Z,5.20
2023-03-29T03:10:59.703Z,5.30
2023-03-29T03:13:28.167Z,5.30
2023-03-29T03:15:56.526Z,5.30
2023-03-29T03:18:26.186Z,5.30
2023-03-29T03:20:59.300Z,5.30
2023-03-29T03:23:31.291Z,5.30
2023-03-29T03:26:00.134Z,5.30
2023-03-29T03:28:28.428Z,5.40
2023-03-29T03:30:56.757Z,5.40
2023-03-29T03:33:27.042Z,5.40
2023-03-29T03:36:02.888Z,5.40
2023-03-29T03:38:31.273Z,5.40
2023-03-29T03:41:01.241Z,5.40
2023-03-29T03:43:30.618Z,5.40
2023-03-29T03:45:59.218Z,5.40
2023-03-29T03:48:29.006Z,5.50
2023-03-29T03:51:03.685Z,5.50
2023-03-29T03:53:38.627Z,5.50
2023-03-29T03:56:09.161Z,5.50
2023-03-29T03:58:38.042Z,5.60
2023-03-29T04:01:08.447Z,5.60
2023-03-29T04:03:39.484Z,5.60
2023-03-29T04:06:08.602Z,5.50
2023-03-29T04:08:37.050Z,5.60
2023-03-29T04:11:08.603Z,5.50
2023-03-29T04:13:39.931Z,5.50
2023-03-29T04:16:08.982Z,5.60
2023-03-29T04:18:41.941Z,5.60
2023-03-29T04:21:10.619Z,5.60
2023-03-29T04:23:39.231Z,5.60
2023-03-29T04:26:07.822Z,5.60
2023-03-29T04:28:42.917Z,5.60
2023-03-29T04:31:12.801Z,5.60
2023-03-29T04:33:43.023Z,5.60
2023-03-29T04:36:11.555Z,5.60
2023-03-29T04:38:43.350Z,5.60
2023-03-29T04:41:15.465Z,5.60
2023-03-29T04:43:46.582Z,5.60
2023-03-29T04:46:15.428Z,5.60
2023-03-29T04:48:45.091Z,5.60
2023-03-29T04:51:13.547Z,5.60
2023-03-29T04:53:41.999Z,5.70
2023-03-29T04:56:10.844Z,5.70
2023-03-29T04:58:42.353Z,5.80
2023-03-29T05:01:10.859Z,5.80
2023-03-29T05:03:39.578Z,5.80
2023-03-29T05:06:12.167Z,5.80
2023-03-29T05:08:41.471Z,5.80
2023-03-29T05:11:11.675Z,5.80
2023-03-29T05:13:40.065Z,5.80
2023-03-29T05:16:11.742Z,5.80
2023-03-29T05:18:42.700Z,5.80
2023-03-29T05:21:12.407Z,5.80
2023-03-29T05:23:40.771Z,5.90
2023-03-29T05:26:10.044Z,5.90
2023-03-29T05:28:38.768Z,5.90
2023-03-29T05:31:07.477Z,5.90
2023-03-29T05:33:36.592Z,5.90
2023-03-29T05:36:11.471Z,6.00
2023-03-29T05:38:42.571Z,6.00
2023-03-29T05:41:11.392Z,6.00
2023-03-29T05:43:40.163Z,6.10
2023-03-29T05:46:10.075Z,6.10
2023-03-29T05:48:38.867Z,6.10
2023-03-29T05:51:07.635Z,6.10
2023-03-29T05:53:36.443Z,6.10
2023-03-29T05:56:11.033Z,6.10
2023-03-29T05:58:39.481Z,6.20
2023-03-29T06:01:13.657Z,6.20
2023-03-29T06:03:42.645Z,6.20
2023-03-29T06:06:11.432Z,6.20
2023-03-29T06:08:39.844Z,6.30
2023-03-29T06:11:10.965Z,6.30
2023-03-29T06:13:39.705Z,6.30
2023-03-29T06:16:09.565Z,6.30
2023-03-29T06:18:40.425Z,6.30
2023-03-29T06:21:09.513Z,6.30
2023-03-29T06:23:38.367Z,6.30
2023-03-29T06:26:07.567Z,6.30
2023-03-29T06:28:37.575Z,6.40
2023-03-29T06:31:06.754Z,6.40
2023-03-29T06:33:37.353Z,6.40
2023-03-29T06:36:06.074Z,6.40
2023-03-29T06:38:35.340Z,6.50
2023-03-29T06:41:05.173Z,6.50
2023-03-29T06:43:34.879Z,6.60
2023-03-29T06:46:08.793Z,6.60
2023-03-29T06:48:37.158Z,6.70
2023-03-29T06:51:05.765Z,6.70
2023-03-29T06:53:34.177Z,6.70
2023-03-29T06:56:09.351Z,6.80
2023-03-29T06:58:38.314Z,6.80
2023-03-29T07:01:08.518Z,6.90
2023-03-29T07:03:36.745Z,6.90
2023-03-29T07:06:10.113Z,6.90
2023-03-29T07:08:43.509Z,6.90
2023-03-29T07:11:13.195Z,7.00
2023-03-29T07:13:42.616Z,7.00
2023-03-29T07:16:19.380Z,7.00
2023-03-29T07:18:48.017Z,7.10
2023-03-29T07:21:16.408Z,7.10
2023-03-29T07:23:44.860Z,7.10
2023-03-29T07:26:13.516Z,7.20
2023-03-29T07:28:42.422Z,7.20
2023-03-29T07:31:12.245Z,7.30
2023-03-29T07:33:42.537Z,7.30
2023-03-29T07:36:11.492Z,7.40
2023-03-29T07:38:39.702Z,7.50
2023-03-29T07:41:09.054Z,7.50
2023-03-29T07:43:37.314Z,7.50
2023-03-29T07:46:07.065Z,7.60
2023-03-29T07:48:36.400Z,7.70
2023-03-29T07:51:06.592Z,7.70
2023-03-29T07:53:34.998Z,7.70
2023-03-29T07:56:03.243Z,7.70
2023-03-29T07:58:31.567Z,7.70
2023-03-29T08:01:01.340Z,7.70
2023-03-29T08:03:29.890Z,7.70
2023-03-29T08:05:58.145Z,7.70
2023-03-29T08:08:27.967Z,7.70
2023-03-29T08:10:56.374Z,7.70
2023-03-29T08:13:24.671Z,7.60
2023-03-29T08:15:52.938Z,7.60
2023-03-29T08:18:21.160Z,7.60
2023-03-29T08:20:49.441Z,7.60
2023-03-29T08:23:17.737Z,7.60
2023-03-29T08:25:48.299Z,7.60
2023-03-29T08:28:16.544Z,7.60
2023-03-29T08:30:44.915Z,7.70
2023-03-29T08:33:13.282Z,7.80
2023-03-29T08:35:41.706Z,7.90
2023-03-29T08:38:10.425Z,7.90
2023-03-29T08:40:38.750Z,7.90
2023-03-29T08:43:29.781Z,7.90
2023-03-29T08:46:08.154Z,8.00
2023-03-29T08:48:40.251Z,8.00
2023-03-29T08:51:15.455Z,8.10
2023-03-29T08:53:48.269Z,8.10
2023-03-29T08:56:19.602Z,8.20
2023-03-29T08:58:51.660Z,8.30
2023-03-29T09:01:21.874Z,8.30
2023-03-29T09:03:54.644Z,8.40
2023-03-29T09:06:26.140Z,8.50
2023-03-29T09:08:54.977Z,8.60
2023-03-29T09:11:39.061Z,8.70
2023-03-29T09:14:25.342Z,8.90
2023-03-29T09:17:01.210Z,9.10
2023-03-29T09:19:38.845Z,9.20
2023-03-29T09:22:16.029Z,9.30
2023-03-29T09:24:57.928Z,9.40
2023-03-29T09:27:28.399Z,9.50
2023-03-29T09:30:06.259Z,9.80
2023-03-29T09:32:43.708Z,10.10
2023-03-29T09:35:18.743Z,10.10
2023-03-29T09:37:50.288Z,10.10
2023-03-29T09:40:22.750Z,10.10
2023-03-29T09:42:53.984Z,10.10
2023-03-29T09:45:23.770Z,10.10
2023-03-29T09:47:57.064Z,10.10
2023-03-29T09:50:31.918Z,10.20
2023-03-29T09:53:01.292Z,10.20
2023-03-29T09:55:32.493Z,10.30
2023-03-29T09:58:03.568Z,10.30
2023-03-29T10:00:33.230Z,10.40
2023-03-29T10:03:01.745Z,10.50
2023-03-29T10:05:36.858Z,10.60
2023-03-29T10:08:19.621Z,10.70
2023-03-29T10:10:48.693Z,10.60
2023-03-29T10:13:22.951Z,10.50
2023-03-29T10:16:04.950Z,10.60
2023-03-29T10:18:33.793Z,10.60
2023-03-29T10:21:03.925Z,10.80
2023-03-29T10:23:34.915Z,10.80
2023-03-29T10:26:05.394Z,11.10
2023-03-29T10:28:35.071Z,11.20
2023-03-29T10:31:08.217Z,11.50
2023-03-29T10:33:37.479Z,11.70
2023-03-29T10:36:08.852Z,11.90
2023-03-29T10:38:39.491Z,12.00
2023-03-29T10:41:12.236Z,11.90
2023-03-29T10:43:44.881Z,11.70
2023-03-29T10:46:23.981Z,11.70
2023-03-29T10:48:56.782Z,11.50
2023-03-29T10:51:27.802Z,11.40
2023-03-29T10:53:57.663Z,11.30
2023-03-29T10:56:40.329Z,11.40
2023-03-29T10:59:23.135Z,11.50
2023-03-29T11:02:18.481Z,11.60
2023-03-29T11:04:52.435Z,11.50
2023-03-29T11:07:29.371Z,11.40
2023-03-29T11:10:07.377Z,11.40
2023-03-29T11:12:41.973Z,11.20
2023-03-29T11:15:23.349Z,11.10
2023-03-29T11:18:04.506Z,10.90
2023-03-29T11:20:43.129Z,10.80
2023-03-29T11:23:31.063Z,10.90
2023-03-29T11:26:09.793Z,10.90
2023-03-29T11:28:44.850Z,11.00
2023-03-29T11:31:25.905Z,11.10
2023-03-29T11:34:09.814Z,11.10
2023-03-29T11:36:50.482Z,11.00
2023-03-29T11:39:28.334Z,10.90
2023-03-29T11:42:03.950Z,10.90
2023-03-29T11:44:32.680Z,11.00
2023-03-29T11:47:05.027Z,11.10
2023-03-29T11:49:39.728Z,11.20
2023-03-29T11:52:12.117Z,11.20
2023-03-29T11:54:44.900Z,11.30
2023-03-29T11:57:20.005Z,11.40
2023-03-29T11:59:54.851Z,11.10
2023-03-29T12:02:29.630Z,11.10
2023-03-29T12:05:03.613Z,11.10
2023-03-29T12:07:37.412Z,11.00
2023-03-29T12:10:16.146Z,11.00
2023-03-29T12:12:47.631Z,11.00
2023-03-29T12:15:21.919Z,11.10
2023-03-29T12:17:56.206Z,11.00
2023-03-29T12:20:28.541Z,11.00
2023-03-29T12:22:57.200Z,11.00
2023-03-29T12:25:30.198Z,10.80
2023-03-29T12:28:16.532Z,10.80
2023-03-29T12:30:55.756Z,10.80
2023-03-29T12:33:59.198Z,10.70
2023-03-29T12:36:57.403Z,10.70
2023-03-29T12:39:28.221Z,10.50
2023-03-29T12:42:08.062Z,10.30
2023-03-29T12:44:37.020Z,10.40
2023-03-29T12:47:05.527Z,10.30
2023-03-29T12:49:37.021Z,10.30
2023-03-29T12:52:16.714Z,10.40
2023-03-29T12:54:54.914Z,10.60
2023-03-29T12:57:29.270Z,10.60
2023-03-29T12:59:57.642Z,10.60
2023-03-29T13:02:38.064Z,10.60
2023-03-29T13:05:31.142Z,10.60
2023-03-29T13:08:11.672Z,10.70
2023-03-29T13:10:43.204Z,10.80
2023-03-29T13:13:20.009Z,11.10
2023-03-29T13:15:49.287Z,11.30
2023-03-29T13:18:41.533Z,11.60
2023-03-29T13:21:18.890Z,11.70
2023-03-29T13:23:57.647Z,11.90
2023-03-29T13:26:59.090Z,12.00
2023-03-29T13:29:57.857Z,12.00
2023-03-29T13:32:40.165Z,12.00
2023-03-29T13:35:22.552Z,12.00
2023-03-29T13:38:02.203Z,12.00
2023-03-29T13:40:44.922Z,11.90
2023-03-29T13:43:23.697Z,11.80
2023-03-29T13:46:24.362Z,11.80
2023-03-29T13:49:07.604Z,11.70
2023-03-29T13:51:41.288Z,11.80
2023-03-29T13:54:24.561Z,11.90
2023-03-29T13:57:02.711Z,12.00
2023-03-29T13:59:39.131Z,12.00
2023-03-29T14:02:09.566Z,12.10
2023-03-29T14:04:45.135Z,12.10
2023-03-29T14:07:16.348Z,12.10
2023-03-29T14:09:47.841Z,12.10
2023-03-29T14:12:18.827Z,12.10
2023-03-29T14:14:58.754Z,12.10
2023-03-29T14:17:29.263Z,12.10
2023-03-29T14:19:59.609Z,12.20
2023-03-29T14:22:34.118Z,12.20
2023-03-29T14:25:07.635Z,12.20
2023-03-29T14:27:37.817Z,12.10
2023-03-29T14:30:24.233Z,12.10
2023-03-29T14:32:52.691Z,12.20
2023-03-29T14:35:23.703Z,12.10
2023-03-29T14:37:52.650Z,12.10
2023-03-29T14:40:22.844Z,12.10
2023-03-29T14:42:52.816Z,12.10
2023-03-29T14:45:24.497Z,12.10
2023-03-29T14:47:53.423Z,12.10
2023-03-29T14:50:26.346Z,12.00
2023-03-29T14:52:55.099Z,11.90
2023-03-29T14:55:25.038Z,12.00
2023-03-29T14:57:58.217Z,12.00
2023-03-29T15:00:30.337Z,12.00
2023-03-29T15:03:00.727Z,12.00
2023-03-29T15:05:38.816Z,11.90
2023-03-29T15:08:10.418Z,11.90
2023-03-29T15:10:42.935Z,11.80
2023-03-29T15:13:21.127Z,11.80
2023-03-29T15:15:54.995Z,11.80
2023-03-29T15:18:28.530Z,11.90
2023-03-29T15:20:56.890Z,11.90
2023-03-29T15:23:26.497Z,11.90
2023-03-29T15:25:56.846Z,12.00
2023-03-29T15:28:34.328Z,12.10
2023-03-29T15:31:12.865Z,12.10
2023-03-29T15:33:42.743Z,12.20
2023-03-29T15:36:13.344Z,12.20
2023-03-29T15:38:45.073Z,12.30
2023-03-29T15:41:14.757Z,12.30
2023-03-29T15:43:44.758Z,12.30
2023-03-29T15:46:14.699Z,12.40
2023-03-29T15:48:43.412Z,12.40
2023-03-29T15:51:12.806Z,12.50
2023-03-29T15:53:42.190Z,12.50
2023-03-29T15:56:12.474Z,12.50
2023-03-29T15:58:40.806Z,12.50
2023-03-29T16:01:34.363Z,12.50
2023-03-29T16:04:03.369Z,12.60
2023-03-29T16:06:33.351Z,12.60
2023-03-29T16:09:01.976Z,12.60
2023-03-29T16:11:30.229Z,12.70
2023-03-29T16:13:58.990Z,12.70
2023-03-29T16:16:28.616Z,12.60
2023-03-29T16:18:57.193Z,12.60
2023-03-29T16:21:26.322Z,12.70
2023-03-29T16:23:54.920Z,12.60
2023-03-29T16:26:23.361Z,12.60
2023-03-29T16:28:51.779Z,12.60
2023-03-29T16:31:20.543Z,12.70
2023-03-29T16:33:50.644Z,12.70
2023-03-29T16:36:18.966Z,12.60
2023-03-29T16:38:47.411Z,12.60
2023-03-29T16:41:18.978Z,12.60
2023-03-29T16:43:47.235Z,12.60
2023-03-29T16:46:15.773Z,12.50
2023-03-29T16:48:44.659Z,12.50
2023-03-29T16:51:14.803Z,12.40
2023-03-29T16:53:43.168Z,12.40
2023-03-29T16:56:12.004Z,12.30
2023-03-29T16:58:40.976Z,12.30
2023-03-29T17:01:10.917Z,12.20
2023-03-29T17:03:39.634Z,12.10
2023-03-29T17:06:09.910Z,12.10
2023-03-29T17:08:41.949Z,12.00
2023-03-29T17:11:11.790Z,12.00
2023-03-29T17:13:40.455Z,12.00
2023-03-29T17:16:09.493Z,11.90
2023-03-29T17:18:37.988Z,11.90
2023-03-29T17:21:07.335Z,11.80
2023-03-29T17:23:35.776Z,11.80
2023-03-29T17:26:07.047Z,11.80
2023-03-29T17:28:36.203Z,11.80
2023-03-29T17:31:07.122Z,11.70
2023-03-29T17:33:36.091Z,11.70
2023-03-29T17:36:06.064Z,11.70
2023-03-29T17:38:35.184Z,11.70
2023-03-29T17:41:07.027Z,11.70
2023-03-29T17:43:35.321Z,11.60
2023-03-29T17:46:04.137Z,11.60
2023-03-29T17:48:32.938Z,11.60
2023-03-29T17:51:01.461Z,11.50
2023-03-29T17:53:29.946Z,11.50
2023-03-29T17:55:58.341Z,11.50
2023-03-29T17:58:28.108Z,11.50
2023-03-29T18:00:56.499Z,11.50
2023-03-29T18:03:24.946Z,11.60
2023-03-29T18:05:54.308Z,11.60
2023-03-29T18:08:22.710Z,11.60
2023-03-29T18:10:51.058Z,11.50
2023-03-29T18:13:25.377Z,11.50
2023-03-29T18:15:57.691Z,11.50
2023-03-29T18:18:27.784Z,11.50
2023-03-29T18:20:56.619Z,11.50
2023-03-29T18:23:25.232Z,11.40
2023-03-29T18:25:59.419Z,11.40
2023-03-29T18:28:28.104Z,11.40
2023-03-29T18:30:58.048Z,11.40
2023-03-29T18:33:27.333Z,11.40
2023-03-29T18:35:55.972Z,11.40
2023-03-29T18:38:24.624Z,11.40
2023-03-29T18:40:53.368Z,11.40
2023-03-29T18:43:22.100Z,11.40
2023-03-29T18:45:51.502Z,11.40
2023-03-29T18:48:21.455Z,11.30
2023-03-29T18:50:49.835Z,11.30
2023-03-29T18:53:18.360Z,11.30
2023-03-29T18:55:47.151Z,11.20
2023-03-29T18:58:16.067Z,11.20
2023-03-29T19:00:44.829Z,11.20
2023-03-29T19:03:13.361Z,11.20
2023-03-29T19:05:44.114Z,11.20
2023-03-29T19:08:12.599Z,11.20
2023-03-29T19:10:41.812Z,11.20
2023-03-29T19:13:10.770Z,11.20
2023-03-29T19:15:42.341Z,11.20
2023-03-29T19:18:11.809Z,11.10
2023-03-29T19:20:42.731Z,11.10
2023-03-29T19:23:12.158Z,11.10
2023-03-29T19:25:41.035Z,11.00
2023-03-29T19:28:10.365Z,11.00
2023-03-29T19:30:39.016Z,11.00
2023-03-29T19:33:07.713Z,11.00
2023-03-29T19:35:37.566Z,11.00
2023-03-29T19:38:07.830Z,11.00
2023-03-29T19:40:36.922Z,10.90
2023-03-29T19:43:07.163Z,10.90
2023-03-29T19:45:35.838Z,10.90
2023-03-29T19:48:04.759Z,11.00
2023-03-29T19:50:33.187Z,10.90
2023-03-29T19:53:01.640Z,10.90
2023-03-29T19:55:31.374Z,10.90
2023-03-29T19:57:59.688Z,10.90
2023-03-29T20:00:28.031Z,10.90
2023-03-29T20:02:56.877Z,10.90
2023-03-29T20:05:25.240Z,10.90
2023-03-29T20:07:54.405Z,10.90
2023-03-29T20:10:22.718Z,10.90
2023-03-29T20:12:52.577Z,11.00
2023-03-29T20:15:25.545Z,11.00
2023-03-29T20:17:55.863Z,11.00
2023-03-29T20:20:26.742Z,11.00
2023-03-29T20:23:04.524Z,11.00
2023-03-29T20:25:33.742Z,11.00
2023-03-29T20:28:03.995Z,11.00
2023-03-29T20:30:32.436Z,11.00
2023-03-29T20:33:00.962Z,11.00
2023-03-29T20:35:29.499Z,11.00
2023-03-29T20:37:57.956Z,11.00
2023-03-29T20:40:26.509Z,11.00
2023-03-29T20:42:54.991Z,10.90
2023-03-29T20:45:25.745Z,11.00
2023-03-29T20:48:02.105Z,11.00
2023-03-29T20:50:31.175Z,11.00
2023-03-29T20:53:02.266Z,11.00
2023-03-29T20:55:33.339Z,11.00
2023-03-29T20:58:02.999Z,11.00
2023-03-29T21:00:35.422Z,11.00
2023-03-29T21:03:04.683Z,11.00
2023-03-29T21:05:34.747Z,11.00
2023-03-29T21:08:04.326Z,11.00
2023-03-29T21:10:33.329Z,11.00
2023-03-29T21:13:02.573Z,10.90
2023-03-29T21:15:33.728Z,10.90
2023-03-29T21:18:02.393Z,10.90
2023-03-29T21:20:32.299Z,10.90
2023-03-29T21:23:01.187Z,10.80
2023-03-29T21:25:29.709Z,10.80
2023-03-29T21:27:58.091Z,10.80
2023-03-29T21:30:26.508Z,10.70
2023-03-29T21:32:56.309Z,10.70
2023-03-29T21:35:25.078Z,10.70
2023-03-29T21:37:53.709Z,10.70
2023-03-29T21:40:22.049Z,10.70
2023-03-29T21:42:50.580Z,10.60
2023-03-29T21:45:18.940Z,10.60
2023-03-29T21:47:47.448Z,10.60
2023-03-29T21:50:17.468Z,10.50
2023-03-29T21:52:45.817Z,10.50
2023-03-29T21:55:14.249Z,10.50
2023-03-29T21:57:42.616Z,10.50
2023-03-29T22:00:15.541Z,10.50
2023-03-29T22:02:45.887Z,10.50
2023-03-29T22:05:14.945Z,10.40
2023-03-29T22:07:44.700Z,10.40
2023-03-29T22:10:13.924Z,10.40
2023-03-29T22:12:43.252Z,10.30
2023-03-29T22:15:12.834Z,10.30
2023-03-29T22:17:44.402Z,10.30
2023-03-29T22:20:13.976Z,10.20
2023-03-29T22:22:49.754Z,10.20
2023-03-29T22:25:18.704Z,10.20
2023-03-29T22:27:48.835Z,10.10
2023-03-29T22:30:18.385Z,10.10
2023-03-29T22:32:46.801Z,10.10
2023-03-29T22:35:15.460Z,10.10
2023-03-29T22:37:46.803Z,10.10
2023-03-29T22:40:15.589Z,10.10
2023-03-29T22:42:44.071Z,10.10
2023-03-29T22:45:12.661Z,10.10
2023-03-29T22:47:41.146Z,10.10
2023-03-29T22:50:10.846Z,10.10
2023-03-29T22:52:39.248Z,10.00
2023-03-29T22:55:09.919Z,10.00
2023-03-29T22:57:38.609Z,10.00
2023-03-29T23:00:09.283Z,9.90
2023-03-29T23:03:02.149Z,9.90
2023-03-29T23:05:31.276Z,9.90
2023-03-29T23:07:59.633Z,9.90
2023-03-29T23:10:30.592Z,9.80
2023-03-29T23:13:08.600Z,9.80
2023-03-29T23:15:38.843Z,9.80
2023-03-29T23:18:07.460Z,9.80
2023-03-29T23:20:36.007Z,9.90
2023-03-29T23:23:04.375Z,10.20
2023-03-29T23:25:34.558Z,10.40
2023-03-29T23:28:03.024Z,10.60
2023-03-29T23:30:31.998Z,10.70
2023-03-29T23:33:00.362Z,10.80
2023-03-29T23:35:31.490Z,10.90
2023-03-29T23:38:00.852Z,11.00
2023-03-29T23:40:29.339Z,11.00
2023-03-29T23:42:59.582Z,11.10
2023-03-29T23:45:28.757Z,11.30
2023-03-29T23:47:57.468Z,11.40
2023-03-29T23:50:28.816Z,11.50
2023-03-29T23:52:58.328Z,11.60
2023-03-29T23:55:26.652Z,11.60
2023-03-29T23:57:54.984Z,11.70
